Time;durP1;ratioP1;P1;durP2;ratioP2;P2;SDS_P1;SDS_P2;PMS_P1;PMS_P2;Temp;Humidity;BMP_temperature;BMP_pressure;BME280_temperature;BME280_humidity;BME280_pressure;Samples;Min_cycle;Max_cycle;Signal;HPM_P1;HPM_P2
2021/08/26 00:07:32;;;;;;;6.03;4.40;;;;;;;27.21;33.40;96528.03;5007921;28;20040;-30
2021/08/26 00:09:58;;;;;;;5.32;4.20;;;;;;;27.21;33.33;96518.34;5007053;28;20029;-31
2021/08/26 00:12:23;;;;;;;5.25;4.07;;;;;;;27.21;33.34;96525.41;5011654;28;20459;-34
2021/08/26 00:14:49;;;;;;;5.82;3.97;;;;;;;27.20;33.35;96526.34;5013941;28;20489;-30
2021/08/26 00:17:14;;;;;;;4.32;3.67;;;;;;;27.21;33.33;96517.50;5009747;28;20527;-34
2021/08/26 00:19:41;;;;;;;8.00;3.90;;;;;;;27.21;33.38;96515.72;5007355;28;20791;-31
2021/08/26 00:22:07;;;;;;;7.00;3.95;;;;;;;27.22;33.39;96503.41;5011383;28;20469;-30
2021/08/26 00:24:32;;;;;;;5.45;3.83;;;;;;;27.21;33.42;96501.72;5001422;28;20038;-30
2021/08/26 00:26:57;;;;;;;5.90;4.07;;;;;;;27.22;33.34;96504.25;5007667;28;20065;-30
2021/08/26 00:29:23;;;;;;;6.38;3.85;;;;;;;27.21;33.31;96506.97;5015222;28;20033;-31
2021/08/26 00:31:48;;;;;;;5.68;4.22;;;;;;;27.22;33.34;96506.03;5011693;28;20025;-31
2021/08/26 00:34:14;;;;;;;5.05;3.83;;;;;;;27.21;33.40;96501.72;5010392;28;20833;-34
2021/08/26 00:36:39;;;;;;;4.45;3.60;;;;;;;27.22;33.22;96498.13;5007612;28;20017;-31
2021/08/26 00:39:04;;;;;;;6.22;3.88;;;;;;;27.22;33.42;96498.13;5006900;28;20045;-31
2021/08/26 00:41:30;;;;;;;7.85;4.00;;;;;;;27.21;33.41;96497.31;5014433;28;20041;-32
2021/08/26 00:43:56;;;;;;;5.70;4.07;;;;;;;27.22;33.35;96500.78;5001761;28;20029;-29
2021/08/26 00:46:21;;;;;;;4.82;3.92;;;;;;;27.22;33.31;96503.41;5005422;28;20028;-30
2021/08/26 00:48:47;;;;;;;5.00;3.90;;;;;;;27.20;33.35;96495.63;5016109;28;20025;-29
2021/08/26 00:51:12;;;;;;;5.18;4.03;;;;;;;27.21;33.30;96496.47;5008649;28;20038;-33
2021/08/26 00:53:39;;;;;;;6.03;4.53;;;;;;;27.21;33.32;96499.94;5010252;28;20032;-30
2021/08/26 00:56:10;;;;;;;6.10;3.50;;;;;;;27.22;33.37;96492.88;5005923;28;20059;-31
2021/08/26 00:58:35;;;;;;;5.15;3.90;;;;;;;27.22;33.39;96490.25;5006698;28;20160;-30
2021/08/26 01:01:01;;;;;;;6.05;3.70;;;;;;;27.22;33.38;96492.88;5012167;28;20038;-36
2021/08/26 01:03:41;;;;;;;5.28;3.90;;;;;;;27.21;33.27;96485.94;5011621;28;20045;-30
2021/08/26 01:06:11;;;;;;;4.53;3.30;;;;;;;27.21;33.32;96486.78;5007413;28;20174;-29
2021/08/26 01:09:02;;;;;;;5.03;3.70;;;;;;;27.20;33.42;96482.47;5009638;28;20037;-32
2021/08/26 01:11:28;;;;;;;4.72;3.55;;;;;;;27.21;33.38;96470.16;5010916;28;20083;-34
2021/08/26 01:13:53;;;;;;;5.13;3.83;;;;;;;27.21;33.66;96470.16;5010972;28;20128;-28
2021/08/26 01:16:19;;;;;;;5.03;3.70;;;;;;;27.22;33.40;96471.84;4995946;28;20038;-33
2021/08/26 01:18:45;;;;;;;5.63;3.85;;;;;;;27.21;33.46;96465.75;5007067;28;20060;-30
2021/08/26 01:21:15;;;;;;;4.30;3.72;;;;;;;27.21;33.38;96464.88;5008903;28;20479;-33
2021/08/26 01:23:46;;;;;;;4.93;3.88;;;;;;;27.20;33.39;96468.47;5008928;28;20124;-29
2021/08/26 01:26:14;;;;;;;5.88;4.18;;;;;;;27.21;33.28;96464.88;5007908;28;20041;-31
2021/08/26 01:28:40;;;;;;;4.57;3.83;;;;;;;27.20;33.31;96457.94;4993788;28;20061;-32
2021/08/26 01:31:06;;;;;;;5.80;3.50;;;;;;;27.20;33.36;96463.22;4995190;28;20064;-35
2021/08/26 01:33:32;;;;;;;5.00;3.70;;;;;;;27.20;33.41;96464.06;4996336;28;20029;-33
2021/08/26 01:35:57;;;;;;;7.25;3.60;;;;;;;27.19;33.36;96464.16;5009573;28;20567;-30
2021/08/26 01:38:23;;;;;;;5.82;3.85;;;;;;;27.20;33.40;96461.44;5009777;28;20037;-33
2021/08/26 01:40:49;;;;;;;4.53;3.92;;;;;;;27.20;33.43;96457.94;5013767;28;20090;-30
2021/08/26 01:43:14;;;;;;;7.07;3.97;;;;;;;27.20;33.42;96457.94;4997370;28;20403;-33
2021/08/26 01:45:43;;;;;;;4.95;3.90;;;;;;;27.17;33.48;96453.72;5004200;28;20033;-28
2021/08/26 01:48:09;;;;;;;5.05;3.90;;;;;;;27.19;33.54;96451.00;5009368;28;20029;-27
2021/08/26 01:50:35;;;;;;;4.90;3.83;;;;;;;27.21;33.45;96451.75;5006486;28;20034;-30
2021/08/26 01:53:01;;;;;;;6.10;4.10;;;;;;;27.19;33.46;96446.56;5006314;28;20036;-30
2021/08/26 01:55:27;;;;;;;6.18;3.92;;;;;;;27.19;33.41;96451.84;5011097;28;20040;-29
2021/08/26 01:57:52;;;;;;;5.95;4.03;;;;;;;27.19;33.43;96445.75;5009299;28;20040;-32
2021/08/26 02:00:17;;;;;;;6.53;3.72;;;;;;;27.19;33.40;96451.84;5011512;28;20026;-30
2021/08/26 02:02:43;;;;;;;5.00;3.70;;;;;;;27.19;33.54;96451.00;5007737;28;20115;-29
2021/08/26 02:05:09;;;;;;;4.53;3.55;;;;;;;27.19;33.48;96445.75;5013482;28;20527;-32
2021/08/26 02:07:34;;;;;;;4.82;3.55;;;;;;;27.19;33.30;96448.38;5004563;28;20045;-31
2021/08/26 02:09:59;;;;;;;4.00;3.33;;;;;;;27.19;33.43;96451.00;5008381;28;20700;-30
2021/08/26 02:12:25;;;;;;;7.20;3.72;;;;;;;27.19;33.54;96445.75;5013752;28;20435;-30
2021/08/26 02:14:50;;;;;;;4.70;3.63;;;;;;;27.18;33.34;96447.53;4995417;28;20037;-28
2021/08/26 02:17:16;;;;;;;4.95;3.63;;;;;;;27.18;33.40;96450.16;5009937;28;20025;-29
2021/08/26 02:19:41;;;;;;;6.95;3.55;;;;;;;27.19;33.34;96451.00;5010874;28;20075;-30
2021/08/26 02:22:06;;;;;;;4.72;3.53;;;;;;;27.18;33.38;96444.91;5011379;28;20551;-32
2021/08/26 02:24:32;;;;;;;5.35;3.92;;;;;;;27.19;33.42;96443.13;5007725;28;20041;-36
2021/08/26 02:26:58;;;;;;;4.25;3.38;;;;;;;27.19;33.36;96440.50;5009363;28;20021;-31
2021/08/26 02:29:24;;;;;;;4.75;3.70;;;;;;;27.17;33.50;96443.22;5013298;28;20026;-26
2021/08/26 02:31:49;;;;;;;7.65;3.60;;;;;;;27.18;33.27;96449.28;5012856;28;20033;-32
2021/08/26 02:34:14;;;;;;;5.55;4.03;;;;;;;27.18;33.40;96438.78;5009741;28;20025;-30
2021/08/26 02:36:40;;;;;;;5.95;3.80;;;;;;;27.17;33.39;96431.84;5011044;28;20036;-34
2021/08/26 02:39:07;;;;;;;5.22;3.88;;;;;;;27.17;33.10;96439.72;5001896;28;20033;-31
2021/08/26 02:41:33;;;;;;;5.75;3.80;;;;;;;27.18;33.38;96438.78;5006467;28;20029;-29
2021/08/26 02:43:59;;;;;;;5.18;4.05;;;;;;;27.18;33.41;96436.16;5009225;28;20029;-29
2021/08/26 02:46:24;;;;;;;5.22;3.47;;;;;;;27.17;33.32;96431.84;5010671;28;20077;-30
2021/08/26 02:48:50;;;;;;;5.63;3.53;;;;;;;27.17;33.35;96429.22;5011509;28;20522;-30
2021/08/26 02:51:15;;;;;;;5.03;3.70;;;;;;;27.17;33.25;96416.06;5013260;28;20731;-29
2021/08/26 02:53:40;;;;;;;5.13;3.75;;;;;;;27.16;33.27;96409.13;5018091;28;20711;-30
2021/08/26 02:56:06;;;;;;;4.53;3.40;;;;;;;27.17;33.38;96410.78;5012428;28;20034;-31
2021/08/26 02:58:31;;;;;;;4.50;3.35;;;;;;;27.17;33.31;96408.16;5012884;28;20033;-28
2021/08/26 03:00:57;;;;;;;5.80;3.78;;;;;;;27.16;33.45;96404.72;5016273;28;20159;-28
2021/08/26 03:03:22;;;;;;;6.40;3.55;;;;;;;27.16;33.31;96395.97;5016669;28;20025;-31
2021/08/26 03:05:47;;;;;;;5.10;3.50;;;;;;;27.16;33.24;96395.97;5008172;28;20033;-30
2021/08/26 03:08:15;;;;;;;5.28;3.60;;;;;;;27.16;33.39;96394.19;5010812;28;20048;-30
2021/08/26 03:10:40;;;;;;;5.40;3.72;;;;;;;27.15;33.38;96381.13;5014221;28;20690;-32
2021/08/26 03:13:06;;;;;;;5.18;3.83;;;;;;;27.16;33.46;96382.81;5016729;28;20029;-28
2021/08/26 03:15:31;;;;;;;4.78;3.53;;;;;;;27.15;33.27;96381.97;5011059;28;20411;-32
2021/08/26 03:17:57;;;;;;;4.50;3.63;;;;;;;27.15;33.23;96371.44;5014456;28;20041;-32
2021/08/26 03:20:22;;;;;;;4.30;3.72;;;;;;;27.16;33.28;96372.28;5007121;28;20030;-31
2021/08/26 03:22:48;;;;;;;4.40;3.40;;;;;;;27.15;33.34;96365.34;5018194;28;20115;-30
2021/08/26 03:25:14;;;;;;;7.13;3.72;;;;;;;27.15;33.29;96354.84;5014986;28;20143;-30
2021/08/26 03:27:39;;;;;;;5.45;3.88;;;;;;;27.15;33.32;96360.09;5010920;28;20029;-29
2021/08/26 03:30:05;;;;;;;5.35;3.50;;;;;;;27.15;33.25;96360.09;5003209;28;20550;-31
2021/08/26 03:32:30;;;;;;;4.95;3.88;;;;;;;27.13;33.29;96358.41;5003098;28;20100;-30
2021/08/26 03:34:56;;;;;;;5.10;3.80;;;;;;;27.14;33.35;96359.22;5016052;28;20033;-31
2021/08/26 03:37:21;;;;;;;6.80;3.63;;;;;;;27.13;33.30;96350.53;5010129;28;21889;-31
2021/08/26 03:39:50;;;;;;;5.90;3.45;;;;;;;27.15;33.32;96354.84;5010508;28;20095;-29
2021/08/26 03:42:15;;;;;;;4.88;3.50;;;;;;;27.12;33.38;96361.13;5006011;28;20029;-30
2021/08/26 03:44:42;;;;;;;6.72;3.63;;;;;;;27.12;33.36;96356.69;5012505;28;20060;-30
2021/08/26 03:47:07;;;;;;;5.10;3.60;;;;;;;27.12;33.33;96361.97;5012018;28;20095;-30
2021/08/26 03:49:33;;;;;;;4.53;3.55;;;;;;;27.12;33.33;96361.97;5013983;28;20438;-30
2021/08/26 03:51:58;;;;;;;4.65;3.30;;;;;;;27.12;33.29;96369.84;5007387;28;20684;-31
2021/08/26 03:54:24;;;;;;;4.53;3.70;;;;;;;27.13;33.38;96368.06;5011959;28;20114;-34
2021/08/26 03:56:49;;;;;;;4.40;3.50;;;;;;;27.13;33.21;96366.31;5012430;28;20021;-30
2021/08/26 03:59:15;;;;;;;5.05;3.55;;;;;;;27.14;33.32;96369.75;5014762;28;20029;-30
2021/08/26 04:01:40;;;;;;;4.20;3.72;;;;;;;27.14;33.41;96369.75;5011283;28;20083;-30
2021/08/26 04:04:05;;;;;;;5.50;3.60;;;;;;;27.15;33.35;96367.97;5015864;28;20034;-32
2021/08/26 04:06:31;;;;;;;4.38;3.53;;;;;;;27.14;33.23;96369.75;5009894;28;20033;-30
2021/08/26 04:08:56;;;;;;;4.43;3.63;;;;;;;27.13;33.28;96368.94;5005373;28;20033;-32
2021/08/26 04:11:22;;;;;;;3.80;3.22;;;;;;;27.15;33.36;96367.97;5009635;28;20084;-30
2021/08/26 04:13:48;;;;;;;4.72;3.20;;;;;;;27.13;33.36;96353.16;5013869;28;20029;-31
2021/08/26 04:16:13;;;;;;;5.10;3.85;;;;;;;27.13;33.42;96358.41;5015486;28;20029;-33
2021/08/26 04:18:38;;;;;;;6.40;3.65;;;;;;;27.13;33.32;96357.56;5013726;28;20037;-34
2021/08/26 04:21:04;;;;;;;4.50;3.58;;;;;;;27.13;33.32;96353.16;5011034;28;20045;-29
2021/08/26 04:23:29;;;;;;;4.50;3.55;;;;;;;27.13;33.41;96357.56;5005420;28;20033;-30
2021/08/26 04:25:55;;;;;;;4.60;3.60;;;;;;;27.13;33.33;96353.16;5015525;28;20045;-34
2021/08/26 04:28:20;;;;;;;5.95;3.40;;;;;;;27.13;33.40;96347.88;5007832;28;20192;-30
2021/08/26 04:30:46;;;;;;;5.13;3.60;;;;;;;27.13;33.23;96347.03;5015104;28;20028;-36
2021/08/26 04:33:11;;;;;;;5.53;3.88;;;;;;;27.12;33.34;96351.44;5005923;28;20025;-29
2021/08/26 04:35:36;;;;;;;6.20;3.20;;;;;;;27.11;33.38;96351.53;5006691;28;20033;-33
2021/08/26 04:38:02;;;;;;;5.70;3.60;;;;;;;27.12;33.27;96346.19;5011882;28;20496;-30
2021/08/26 04:40:27;;;;;;;4.68;3.67;;;;;;;27.12;33.37;96351.44;5011449;28;20491;-29
2021/08/26 04:42:53;;;;;;;4.65;3.80;;;;;;;27.12;33.46;96348.81;5013188;28;20053;-28
2021/08/26 04:45:18;;;;;;;6.00;3.85;;;;;;;27.12;33.47;96347.97;5011281;28;20565;-28
2021/08/26 04:47:43;;;;;;;4.20;3.53;;;;;;;27.11;33.49;96349.75;5015671;28;20483;-28
2021/08/26 04:50:09;;;;;;;5.80;3.65;;;;;;;27.13;33.46;96341.78;4992011;28;20029;-30
2021/08/26 04:52:34;;;;;;;3.95;3.33;;;;;;;27.11;33.45;96341.88;5008418;28;20037;-30
2021/08/26 04:55:00;;;;;;;10.35;3.67;;;;;;;27.12;33.42;96340.09;4992807;28;20029;-31
2021/08/26 04:57:25;;;;;;;5.45;3.63;;;;;;;27.12;33.49;96345.34;5011693;28;20026;-31
2021/08/26 04:59:51;;;;;;;5.07;3.58;;;;;;;27.11;33.46;96344.50;5015365;28;20524;-33
2021/08/26 05:02:16;;;;;;;4.68;3.35;;;;;;;27.11;33.50;96344.50;5009522;28;20639;-28
2021/08/26 05:04:41;;;;;;;5.00;3.38;;;;;;;27.12;33.48;96340.91;5015760;28;20037;-30
2021/08/26 05:07:07;;;;;;;4.43;3.25;;;;;;;27.11;33.39;96333.13;5014575;28;20028;-30
2021/08/26 05:09:33;;;;;;;4.50;3.22;;;;;;;27.11;33.50;96336.59;5013254;28;20029;-30
2021/08/26 05:12:00;;;;;;;5.85;3.78;;;;;;;27.11;33.53;96344.50;5005257;28;20033;-31
2021/08/26 05:14:25;;;;;;;4.75;3.35;;;;;;;27.11;33.46;96344.50;5008048;28;20404;-30
2021/08/26 05:16:50;;;;;;;4.00;3.00;;;;;;;27.12;33.46;96347.97;5008660;28;20029;-29
2021/08/26 05:19:16;;;;;;;4.80;3.40;;;;;;;27.12;33.51;96353.25;5010752;28;20068;-29
2021/08/26 05:21:41;;;;;;;5.05;3.60;;;;;;;27.11;33.65;96349.75;5005611;28;20467;-28
2021/08/26 05:24:07;;;;;;;4.93;3.75;;;;;;;27.11;33.46;96339.25;5012388;28;20033;-31
2021/08/26 05:26:32;;;;;;;4.60;3.50;;;;;;;27.11;33.47;96349.75;5010887;28;20029;-29
2021/08/26 05:28:57;;;;;;;5.07;3.83;;;;;;;27.11;33.58;96344.50;5007490;28;20029;-30
2021/08/26 05:31:23;;;;;;;5.00;3.63;;;;;;;27.11;33.60;96338.38;5012283;28;20035;-31
2021/08/26 05:33:48;;;;;;;5.53;3.47;;;;;;;27.12;33.50;96347.97;5009275;28;20431;-28
2021/08/26 05:36:13;;;;;;;4.90;3.78;;;;;;;27.11;33.47;96341.00;5008614;28;20037;-29
2021/08/26 05:38:39;;;;;;;4.30;3.45;;;;;;;27.10;33.54;96332.31;5009922;28;20033;-34
2021/08/26 05:41:04;;;;;;;4.75;3.33;;;;;;;27.10;33.46;96337.56;5010984;28;20072;-30
2021/08/26 05:43:30;;;;;;;6.13;3.75;;;;;;;27.10;33.53;96342.81;5012380;28;20087;-29
2021/08/26 05:45:55;;;;;;;4.68;3.50;;;;;;;27.10;33.49;96341.97;5012622;28;20021;-27
2021/08/26 05:48:20;;;;;;;5.68;3.65;;;;;;;27.09;33.51;96341.16;5007382;28;20029;-29
2021/08/26 05:50:46;;;;;;;5.55;4.10;;;;;;;27.09;33.53;96346.41;5002568;28;20037;-29
2021/08/26 05:53:11;;;;;;;5.25;3.40;;;;;;;27.10;33.49;96353.34;5009548;28;20184;-30
2021/08/26 05:55:37;;;;;;;4.80;3.53;;;;;;;27.10;33.53;96355.13;4999634;28;20488;-29
2021/08/26 05:58:02;;;;;;;4.45;3.42;;;;;;;27.08;33.59;96355.22;5022048;28;20034;-29
2021/08/26 06:00:28;;;;;;;4.85;3.33;;;;;;;27.11;33.60;96354.16;5006151;28;20029;-30
2021/08/26 06:02:53;;;;;;;5.18;3.67;;;;;;;27.10;33.49;96348.09;5004867;28;20040;-31
2021/08/26 06:05:19;;;;;;;5.82;3.50;;;;;;;27.10;33.51;96347.22;5011829;28;20037;-31
2021/08/26 06:07:44;;;;;;;4.93;3.72;;;;;;;27.11;33.56;96349.75;5008607;28;20040;-29
2021/08/26 06:10:10;;;;;;;6.40;3.53;;;;;;;27.10;33.62;96358.59;5010629;28;20026;-31
2021/08/26 06:12:39;;;;;;;5.68;3.70;;;;;;;27.10;33.54;96345.44;5011598;28;20116;-30
2021/08/26 06:15:05;;;;;;;4.90;3.47;;;;;;;27.11;33.61;96352.38;4998749;28;20025;-29
2021/08/26 06:17:30;;;;;;;7.50;3.58;;;;;;;27.11;33.92;96349.75;5002702;28;20467;-31
2021/08/26 06:19:56;;;;;;;4.53;3.47;;;;;;;27.10;33.62;96344.59;5007385;28;20033;-30
2021/08/26 06:22:21;;;;;;;6.55;3.58;;;;;;;27.07;33.66;96340.38;5009104;28;20519;-29
2021/08/26 06:24:46;;;;;;;4.43;3.40;;;;;;;27.11;33.59;96351.53;5006349;28;20037;-27
2021/08/26 06:27:12;;;;;;;5.20;3.67;;;;;;;27.10;33.70;96350.72;5011353;28;20041;-31
2021/08/26 06:29:37;;;;;;;4.55;3.40;;;;;;;27.10;33.73;96358.59;5017791;28;20040;-29
2021/08/26 06:32:03;;;;;;;7.10;3.70;;;;;;;27.12;33.65;96350.63;5011387;28;20022;-31
2021/08/26 06:34:28;;;;;;;4.35;3.45;;;;;;;27.09;33.72;96354.28;5012774;28;20038;-29
2021/08/26 06:36:54;;;;;;;6.38;3.72;;;;;;;27.11;33.76;96362.91;5018920;28;20040;-31
2021/08/26 06:39:19;;;;;;;5.32;3.58;;;;;;;27.11;33.71;96354.16;5006753;28;20021;-29
2021/08/26 06:41:45;;;;;;;4.63;3.58;;;;;;;27.11;33.72;96368.16;4986821;28;20037;-29
2021/08/26 06:44:10;;;;;;;5.75;3.20;;;;;;;27.10;33.72;96369.13;5011843;28;20199;-28
2021/08/26 06:46:38;;;;;;;5.03;3.60;;;;;;;27.10;33.80;96366.50;5011700;28;20032;-31
2021/08/26 06:49:03;;;;;;;4.90;3.65;;;;;;;27.10;33.74;96374.38;5007987;28;20307;-32
2021/08/26 06:51:28;;;;;;;7.32;3.70;;;;;;;27.11;33.83;96367.31;5014623;28;20387;-30
2021/08/26 06:53:54;;;;;;;12.23;4.10;;;;;;;27.10;33.79;96369.13;5006744;28;20026;-30
2021/08/26 06:56:19;;;;;;;13.30;4.90;;;;;;;27.11;33.74;96370.81;5011032;28;20025;-31
2021/08/26 06:58:45;;;;;;;13.27;5.68;;;;;;;27.10;34.16;96379.63;5011567;28;20511;-31
2021/08/26 07:01:10;;;;;;;20.67;5.78;;;;;;;27.08;33.94;96370.16;5012349;28;20036;-30
2021/08/26 07:03:36;;;;;;;16.00;6.07;;;;;;;27.08;33.99;96375.44;5008110;28;20041;-30
2021/08/26 07:06:01;;;;;;;8.88;5.43;;;;;;;27.05;33.95;96371.22;5008769;28;20033;-30
2021/08/26 07:08:26;;;;;;;11.00;5.97;;;;;;;27.04;33.85;96369.50;5010008;28;20033;-31
2021/08/26 07:10:52;;;;;;;11.20;5.88;;;;;;;27.02;33.69;96366.16;5006966;28;20454;-35
2021/08/26 07:13:18;;;;;;;14.23;5.78;;;;;;;27.02;33.67;96365.28;5008344;28;20025;-30
2021/08/26 07:15:43;;;;;;;11.63;5.72;;;;;;;27.00;33.81;96357.50;5010734;28;20034;-31
2021/08/26 07:18:09;;;;;;;12.13;5.78;;;;;;;26.97;33.78;96357.72;5011186;28;20029;-31
2021/08/26 07:20:34;;;;;;;10.82;5.40;;;;;;;26.96;33.68;96350.78;4997591;28;20048;-31
2021/08/26 07:22:59;;;;;;;12.57;5.70;;;;;;;26.94;33.76;96363.13;5010706;28;20033;-31
2021/08/26 07:25:25;;;;;;;11.38;5.32;;;;;;;26.92;33.83;96355.34;5011860;28;20040;-34
2021/08/26 07:27:51;;;;;;;15.45;5.75;;;;;;;26.91;33.83;96347.53;5010139;28;20578;-32
2021/08/26 07:30:16;;;;;;;10.02;5.57;;;;;;;26.89;33.79;96347.69;5009010;28;20158;-31
2021/08/26 07:32:41;;;;;;;9.90;5.50;;;;;;;26.88;33.79;96353.84;5010363;28;20037;-35
2021/08/26 07:35:07;;;;;;;12.48;5.63;;;;;;;26.86;33.92;96348.69;5008947;28;20432;-30
2021/08/26 07:37:33;;;;;;;8.48;5.53;;;;;;;26.84;33.96;96342.69;5009372;28;20639;-30
2021/08/26 07:39:58;;;;;;;10.18;5.28;;;;;;;26.84;34.00;96342.69;5008048;28;20033;-30
2021/08/26 07:42:23;;;;;;;9.85;5.63;;;;;;;26.84;34.01;96342.69;5008254;28;20090;-34
2021/08/26 07:44:49;;;;;;;8.02;5.22;;;;;;;26.84;34.16;96347.97;5007052;28;20615;-31
2021/08/26 07:47:14;;;;;;;8.52;5.32;;;;;;;26.84;34.16;96337.44;5010452;28;20025;-30
2021/08/26 07:49:40;;;;;;;9.50;5.43;;;;;;;26.83;34.17;96338.38;5008589;28;20036;-31
2021/08/26 07:52:05;;;;;;;10.13;5.55;;;;;;;26.85;34.16;96344.38;5012929;28;20077;-34
2021/08/26 07:54:31;;;;;;;8.15;5.28;;;;;;;26.82;34.25;96338.47;5010620;28;20036;-31
2021/08/26 07:56:57;;;;;;;8.10;5.55;;;;;;;26.84;34.27;96341.84;5007189;28;22979;-33
2021/08/26 07:59:23;;;;;;;11.48;5.82;;;;;;;26.84;34.13;96342.69;5006693;28;20021;-31
2021/08/26 08:01:48;;;;;;;8.60;5.07;;;;;;;26.84;34.13;96347.97;5009554;28;20537;-30
2021/08/26 08:04:14;;;;;;;8.75;5.30;;;;;;;26.82;34.13;96344.59;5025438;28;20318;-31
2021/08/26 08:06:39;;;;;;;9.60;5.22;;;;;;;26.82;34.11;96357.75;4993261;28;20064;-31
2021/08/26 08:09:05;;;;;;;10.80;5.97;;;;;;;26.81;34.05;96353.41;5008933;28;20056;-30
2021/08/26 08:11:30;;;;;;;15.27;6.05;;;;;;;26.79;33.88;96355.31;4992375;28;20034;-29
2021/08/26 08:13:56;;;;;;;7.97;5.80;;;;;;;26.76;33.93;96344.97;5005680;28;20025;-31
2021/08/26 08:16:21;;;;;;;8.95;5.55;;;;;;;26.75;33.97;96343.28;5006156;28;20025;-33
2021/08/26 08:18:46;;;;;;;11.80;6.57;;;;;;;26.74;34.05;96346.88;5022757;28;20404;-29
2021/08/26 08:21:12;;;;;;;16.30;6.70;;;;;;;26.70;33.67;96340.94;5008797;28;20037;-31
2021/08/26 08:23:37;;;;;;;9.35;6.13;;;;;;;26.69;33.46;96346.31;5008467;28;20102;-32
2021/08/26 08:26:03;;;;;;;9.65;6.30;;;;;;;26.64;33.56;96340.50;5008802;28;20540;-31
2021/08/26 08:28:28;;;;;;;8.98;5.68;;;;;;;26.61;33.75;96337.13;5004960;28;20018;-31
2021/08/26 08:30:54;;;;;;;9.25;6.40;;;;;;;26.59;33.69;96339.00;5006623;28;20026;-32
2021/08/26 08:35:54;;;;;;;10.82;5.93;;;;;;;26.56;33.83;96328.72;3468776;22;20058;-66
2021/08/26 08:38:20;;;;;;;9.98;5.00;;;;;;;26.57;34.22;96338.28;4959230;23;20630;-35
2021/08/26 08:40:46;;;;;;;28.98;5.50;;;;;;;26.58;34.24;96336.50;5004946;28;20041;-34
2021/08/26 08:43:11;;;;;;;15.38;5.63;;;;;;;26.59;34.27;96332.91;5003759;28;20029;-33
2021/08/26 08:45:37;;;;;;;10.65;5.95;;;;;;;26.60;34.33;96338.09;5010200;28;20092;-37
2021/08/26 08:48:04;;;;;;;12.93;5.78;;;;;;;26.61;34.27;96338.91;5000315;28;20108;-35
2021/08/26 08:50:30;;;;;;;9.98;5.50;;;;;;;26.63;34.20;96344.06;5006664;28;20029;-33
2021/08/26 08:52:55;;;;;;;10.93;5.47;;;;;;;26.63;34.38;96344.06;5009464;28;20033;-31
2021/08/26 08:55:20;;;;;;;10.27;5.00;;;;;;;26.64;34.07;96340.50;4990757;28;20036;-29
2021/08/26 08:57:46;;;;;;;9.48;5.07;;;;;;;26.63;34.08;96344.94;5000499;28;20017;-30
2021/08/26 09:00:14;;;;;;;7.75;5.40;;;;;;;26.65;34.18;96357.97;5004427;28;20053;-29
2021/08/26 09:02:39;;;;;;;14.52;5.97;;;;;;;26.64;34.20;96357.13;5007743;28;20039;-30
2021/08/26 09:05:05;;;;;;;8.38;5.10;;;;;;;26.66;34.06;96357.03;5010897;28;20025;-28
2021/08/26 09:07:32;;;;;;;15.65;5.43;;;;;;;26.65;34.15;96355.34;5010565;28;20033;-30
2021/08/26 09:09:57;;;;;;;9.00;5.30;;;;;;;26.66;34.21;96354.41;5013465;28;20040;-29
2021/08/26 09:12:44;;;;;;;14.32;5.93;;;;;;;26.65;34.46;96352.72;5010462;28;20028;-29
2021/08/26 09:15:30;;;;;;;9.48;5.25;;;;;;;26.65;34.45;96355.34;5012363;28;20108;-29
2021/08/26 09:18:14;;;;;;;10.50;5.05;;;;;;;26.66;34.62;96359.66;5014735;28;20087;-29
2021/08/26 09:21:05;;;;;;;11.90;5.53;;;;;;;26.64;34.75;96348.38;5013137;28;21915;-32
2021/08/26 09:23:33;;;;;;;9.07;5.15;;;;;;;26.66;34.92;96357.03;5009738;28;20747;-35
2021/08/26 09:26:18;;;;;;;13.85;6.38;;;;;;;26.66;34.94;96359.66;5010318;28;20116;-37
2021/08/26 09:28:43;;;;;;;12.88;5.63;;;;;;;26.65;35.15;96363.22;5013874;28;20025;-36
2021/08/26 09:31:14;;;;;;;10.80;5.47;;;;;;;26.65;35.11;96352.72;5012358;28;20035;-31
2021/08/26 09:33:47;;;;;;;7.70;5.15;;;;;;;26.65;35.34;96363.22;5013409;28;20033;-35
2021/08/26 09:36:17;;;;;;;12.80;4.72;;;;;;;26.67;35.30;96363.97;5012254;28;20025;-37
2021/08/26 09:38:42;;;;;;;8.93;4.90;;;;;;;26.68;35.31;96360.38;5013168;28;20033;-35
2021/08/26 09:41:08;;;;;;;8.50;4.68;;;;;;;26.69;35.30;96369.97;5012471;28;20040;-36
2021/08/26 09:43:33;;;;;;;9.00;5.28;;;;;;;26.69;35.49;96370.81;5013247;28;20725;-36
2021/08/26 09:45:58;;;;;;;12.38;4.93;;;;;;;26.69;35.34;96364.72;5011583;28;20029;-38
2021/08/26 09:48:24;;;;;;;7.43;4.18;;;;;;;26.70;35.41;96371.66;5011064;28;20087;-35
2021/08/26 09:50:51;;;;;;;7.20;4.40;;;;;;;26.69;35.60;96368.19;5013008;28;20558;-35
2021/08/26 09:53:25;;;;;;;7.38;4.43;;;;;;;26.68;35.64;96357.75;5012564;28;20553;-34
2021/08/26 09:56:04;;;;;;;5.63;4.05;;;;;;;26.71;35.63;96362.81;5013646;28;20030;-36
2021/08/26 09:58:33;;;;;;;6.88;3.83;;;;;;;26.71;35.62;96368.94;5015370;28;20036;-30
2021/08/26 10:01:06;;;;;;;7.38;4.28;;;;;;;26.72;35.76;96364.50;5013574;28;20029;-36
2021/08/26 10:03:32;;;;;;;5.78;4.25;;;;;;;26.72;35.77;96370.63;5011389;28;20399;-36
2021/08/26 10:05:57;;;;;;;6.15;4.25;;;;;;;26.73;35.71;96366.19;5012173;28;20025;-36
2021/08/26 10:08:23;;;;;;;8.15;4.47;;;;;;;26.71;35.58;96368.94;5011749;28;20566;-36
2021/08/26 10:10:48;;;;;;;8.65;4.30;;;;;;;26.72;35.91;96375.03;4996400;28;20045;-35
2021/08/26 10:13:14;;;;;;;5.70;4.00;;;;;;;26.73;35.84;96381.97;5011772;28;20034;-35
2021/08/26 10:15:39;;;;;;;6.88;4.22;;;;;;;26.73;35.77;96381.97;5012765;28;20029;-34
2021/08/26 10:18:05;;;;;;;5.22;3.65;;;;;;;26.73;35.91;96380.19;5009854;28;20033;-33
2021/08/26 10:20:30;;;;;;;4.90;3.33;;;;;;;26.74;35.96;96383.66;4994677;28;20041;-35
2021/08/26 10:22:55;;;;;;;3.97;2.90;;;;;;;26.73;35.90;96381.97;5012035;28;20041;-32
2021/08/26 10:25:21;;;;;;;5.53;2.88;;;;;;;26.73;35.91;96384.59;4988780;28;20030;-31
2021/08/26 10:27:46;;;;;;;4.93;2.97;;;;;;;26.74;35.92;96397.63;4988663;28;20037;-34
2021/08/26 10:30:28;;;;;;;3.85;2.90;;;;;;;26.74;35.90;96388.94;5009601;28;20033;-35
2021/08/26 10:33:24;;;;;;;4.07;2.65;;;;;;;26.74;35.91;96387.13;5002453;28;20025;-34
2021/08/26 10:35:49;;;;;;;3.30;2.20;;;;;;;26.74;36.25;96383.66;4990770;28;20042;-37
2021/08/26 10:38:25;;;;;;;2.95;2.03;;;;;;;26.71;36.18;96383.84;4995626;28;20697;-28
2021/08/26 10:40:51;;;;;;;2.67;1.83;;;;;;;26.69;36.27;96386.56;5004670;28;20598;-30
2021/08/26 10:43:35;;;;;;;2.65;1.50;;;;;;;26.68;36.29;96379.63;5004438;28;20045;-30
2021/08/26 10:46:02;;;;;;;2.38;1.42;;;;;;;26.70;36.08;96380.38;5002357;28;20025;-29
2021/08/26 10:48:28;;;;;;;1.73;1.30;;;;;;;26.75;36.03;96377.47;5000978;28;20040;-29
2021/08/26 10:51:17;;;;;;;1.67;1.40;;;;;;;26.82;36.02;96391.06;5002857;28;20044;-31
2021/08/26 10:53:47;;;;;;;2.03;1.35;;;;;;;26.90;35.84;96386.16;5001099;28;20877;-30
2021/08/26 10:56:18;;;;;;;1.80;1.42;;;;;;;27.00;35.88;96392.53;4999147;28;20036;-30
2021/08/26 10:58:44;;;;;;;3.05;1.85;;;;;;;27.12;35.34;96380.38;5002241;28;20033;-32
2021/08/26 11:01:11;;;;;;;5.15;2.00;;;;;;;27.24;34.97;96381.34;5000473;28;20705;-30
2021/08/26 11:03:45;;;;;;;4.55;2.28;;;;;;;27.37;34.59;96384.03;5003146;28;20147;-31
2021/08/26 11:06:16;;;;;;;5.22;2.40;;;;;;;27.49;34.41;96382.38;5001590;28;20512;-29
2021/08/26 11:08:44;;;;;;;;;;;;;;;27.61;34.30;96383.38;5000103;28;20100;-36
2021/08/26 11:11:28;;;;;;;4.10;2.50;;;;;;;27.72;34.06;96390.53;5003096;28;20283;-31
2021/08/26 11:14:02;;;;;;;4.40;2.75;;;;;;;27.81;33.49;96378.56;5009255;28;20136;-32
2021/08/26 11:16:27;;;;;;;5.25;2.72;;;;;;;27.87;33.18;96378.13;5006635;28;20562;-31
2021/08/26 11:19:19;;;;;;;4.00;2.90;;;;;;;27.97;32.70;96372.22;5008998;28;20056;-32
2021/08/26 11:21:47;;;;;;;4.22;2.97;;;;;;;28.06;32.63;96386.56;5014960;28;20029;-33
2021/08/26 11:24:12;;;;;;;3.83;2.40;;;;;;;28.15;32.33;96372.75;5010653;28;20124;-31
2021/08/26 11:26:56;;;;;;;3.70;2.70;;;;;;;28.23;31.90;96373.06;5005086;28;20979;-32
2021/08/26 11:29:21;;;;;;;3.75;2.78;;;;;;;28.31;31.56;96377.81;5007584;28;20037;-30
2021/08/26 11:32:00;;;;;;;4.72;2.67;;;;;;;28.39;31.59;96370.22;5007308;28;20029;-29
2021/08/26 11:34:41;;;;;;;2.67;2.40;;;;;;;28.46;32.00;96372.41;5007772;28;20036;-28
2021/08/26 11:37:14;;;;;;;4.72;2.60;;;;;;;28.52;32.02;96358.78;5006058;28;20049;-29
2021/08/26 11:39:41;;;;;;;10.18;3.15;;;;;;;28.57;30.70;96364.59;5009141;28;20029;-29